Greenfield, California
Current Conditions -  °F | °C
As of 9:53 PM on Friday 28 Nov 2014 (Local Time) from KSNS Reporting Station
Overcast Overcast  
Wind Chill: 56°   Ceiling: 1600
Heat Index: 56°   Visibility: 10mi
Dew Point: 48°   Wind: 3mph
Humidity: 75%   Direction: 360°N
Pressure: 29.92"   Gusts: NA
Location:  36.32°N, 121.24°W
Report Text: KSNS 290553Z 36003KT 10SM OVC016 13/09 A2992 RMK AO2 SLP140 T01330089 10172 20122 51004
Loading
Personal Weather Stations






























Interactive Weather Map New forecast layout! Learn more

10-Day Weather Forecast

Advertisements
Track Severe Weather on mobile